TAI520 MSLP-KLAX
Flight info
| Callsign | TAI520 |
|---|---|
| Flight time | N/A |
| Altitude | 34000 |
| Route | OLISU3D OLISU UG436 AUR DCT ASOKU UL655 LEXUX/N0459F360 UL655 PPE J93 ASUTA DCT AMMOR OLAAA2 |
| Aircraft | A320/M-SDE3FGHIRWY/LB1 |
Departure
| Time | N/A |
|---|---|
| Airport | El Salvador International Airport Saint Óscar Arnulfo Romero y Galdámez (MSLP) |
Arrival
| Time | 2026-04-26 04:25 |
|---|---|
| Airport | Los Angeles International Airport (KLAX) |
| Time | Latitude | Longitude | Altitude | Speed | Heading |
|---|---|---|---|---|---|
| 2026-04-26 03:22 | 30.90586 | -112.44032 | 35873 ft | 404 kts | 291° |
| 2026-04-26 03:22 | 30.93564 | -112.49538 | 35862 ft | 404 kts | 291° |
| 2026-04-26 03:23 | 30.96568 | -112.55083 | 35860 ft | 405 kts | 291° |
| 2026-04-26 03:23 | 30.99578 | -112.60652 | 35853 ft | 405 kts | 291° |
| 2026-04-26 03:24 | 31.02579 | -112.66225 | 35852 ft | 405 kts | 291° |
| 2026-04-26 03:24 | 31.05560 | -112.71764 | 35848 ft | 406 kts | 291° |
| 2026-04-26 03:25 | 31.08566 | -112.77351 | 35878 ft | 406 kts | 291° |
| 2026-04-26 03:25 | 31.11557 | -112.82922 | 35866 ft | 406 kts | 291° |
| 2026-04-26 03:26 | 31.14550 | -112.88516 | 35857 ft | 406 kts | 291° |
| 2026-04-26 03:26 | 31.17547 | -112.94116 | 35854 ft | 406 kts | 291° |
| 2026-04-26 03:27 | 31.20544 | -112.99719 | 35851 ft | 407 kts | 291° |
| 2026-04-26 03:27 | 31.23522 | -113.05306 | 35848 ft | 407 kts | 290° |
| 2026-04-26 03:28 | 31.26515 | -113.10922 | 35860 ft | 407 kts | 290° |
| 2026-04-26 03:28 | 31.29505 | -113.16540 | 35854 ft | 407 kts | 290° |
| 2026-04-26 03:29 | 31.32495 | -113.22165 | 35854 ft | 407 kts | 290° |
| 2026-04-26 03:29 | 31.35483 | -113.27797 | 35846 ft | 407 kts | 290° |
| 2026-04-26 03:30 | 31.38503 | -113.33416 | 35844 ft | 409 kts | 291° |
| 2026-04-26 03:30 | 31.41631 | -113.38947 | 35837 ft | 410 kts | 292° |
| 2026-04-26 03:31 | 31.44793 | -113.44506 | 35871 ft | 409 kts | 292° |
| 2026-04-26 03:31 | 31.47925 | -113.50067 | 35831 ft | 407 kts | 292° |
| 2026-04-26 03:32 | 31.51042 | -113.55623 | 35819 ft | 408 kts | 292° |
| 2026-04-26 03:32 | 31.54151 | -113.61189 | 35819 ft | 408 kts | 292° |
| 2026-04-26 03:33 | 31.57253 | -113.66758 | 35818 ft | 408 kts | 292° |
| 2026-04-26 03:33 | 31.60343 | -113.72295 | 35819 ft | 408 kts | 292° |
| 2026-04-26 03:34 | 31.63455 | -113.77871 | 35823 ft | 408 kts | 292° |
| 2026-04-26 03:34 | 31.66558 | -113.83445 | 35822 ft | 407 kts | 291° |
| 2026-04-26 03:35 | 31.69645 | -113.89016 | 35817 ft | 407 kts | 291° |
| 2026-04-26 03:35 | 31.72729 | -113.94601 | 35814 ft | 407 kts | 291° |
| 2026-04-26 03:36 | 31.75823 | -114.00184 | 35821 ft | 408 kts | 291° |
| 2026-04-26 03:36 | 31.78921 | -114.05769 | 35821 ft | 408 kts | 291° |
| 2026-04-26 03:37 | 31.81990 | -114.11326 | 35827 ft | 408 kts | 291° |
| 2026-04-26 03:37 | 31.85077 | -114.16925 | 35848 ft | 408 kts | 291° |
| 2026-04-26 03:38 | 31.88165 | -114.22532 | 35837 ft | 408 kts | 291° |
| 2026-04-26 03:38 | 31.91247 | -114.28144 | 35832 ft | 408 kts | 291° |
| 2026-04-26 03:39 | 31.94337 | -114.33772 | 35831 ft | 408 kts | 291° |
| 2026-04-26 03:39 | 31.97410 | -114.39394 | 35823 ft | 408 kts | 291° |
| 2026-04-26 03:40 | 32.00472 | -114.44996 | 35822 ft | 409 kts | 291° |
| 2026-04-26 03:40 | 32.03558 | -114.50635 | 35827 ft | 409 kts | 292° |
| 2026-04-26 03:41 | 32.06642 | -114.56282 | 35819 ft | 410 kts | 292° |
| 2026-04-26 03:41 | 32.09721 | -114.61936 | 35818 ft | 410 kts | 291° |
| 2026-04-26 03:42 | 32.12805 | -114.67599 | 35818 ft | 410 kts | 292° |
| 2026-04-26 03:42 | 32.15885 | -114.73263 | 35815 ft | 410 kts | 291° |
| 2026-04-26 03:43 | 32.18958 | -114.78938 | 35841 ft | 410 kts | 292° |
| 2026-04-26 03:43 | 32.22011 | -114.84575 | 35834 ft | 410 kts | 292° |
| 2026-04-26 03:44 | 32.25085 | -114.90262 | 35828 ft | 410 kts | 292° |
| 2026-04-26 03:44 | 32.28163 | -114.95962 | 35826 ft | 410 kts | 292° |
| 2026-04-26 03:45 | 32.31230 | -115.01653 | 35850 ft | 410 kts | 292° |
| 2026-04-26 03:45 | 32.34294 | -115.07338 | 35824 ft | 409 kts | 291° |
| 2026-04-26 03:46 | 32.37351 | -115.13022 | 35853 ft | 410 kts | 291° |
| 2026-04-26 03:47 | 32.41921 | -115.21518 | 35827 ft | 409 kts | 291° |
| 2026-04-26 03:47 | 32.44965 | -115.27208 | 35818 ft | 410 kts | 291° |
| 2026-04-26 03:48 | 32.48015 | -115.32917 | 35804 ft | 410 kts | 291° |
| 2026-04-26 03:48 | 32.51062 | -115.38622 | 35840 ft | 409 kts | 291° |
| 2026-04-26 03:49 | 32.54077 | -115.44284 | 35843 ft | 408 kts | 291° |
| 2026-04-26 03:49 | 32.57107 | -115.49978 | 35811 ft | 408 kts | 291° |
| 2026-04-26 03:50 | 32.60141 | -115.55674 | 35809 ft | 409 kts | 291° |
| 2026-04-26 03:50 | 32.63185 | -115.61406 | 35848 ft | 409 kts | 291° |
| 2026-04-26 03:51 | 32.66215 | -115.67138 | 35885 ft | 409 kts | 291° |
| 2026-04-26 03:51 | 32.69234 | -115.72859 | 35900 ft | 408 kts | 291° |
| 2026-04-26 03:52 | 32.72230 | -115.78518 | 35930 ft | 407 kts | 290° |
| 2026-04-26 03:52 | 32.75228 | -115.84201 | 35866 ft | 406 kts | 290° |
| 2026-04-26 03:53 | 32.78224 | -115.89898 | 35858 ft | 406 kts | 290° |
| 2026-04-26 03:53 | 32.81211 | -115.95614 | 35783 ft | 406 kts | 290° |
| 2026-04-26 03:54 | 32.84136 | -116.01414 | 35848 ft | 410 kts | 290° |
| 2026-04-26 03:54 | 32.87031 | -116.07256 | 35846 ft | 406 kts | 290° |
| 2026-04-26 03:55 | 32.89864 | -116.12911 | 35729 ft | 394 kts | 289° |
| 2026-04-26 03:55 | 32.91247 | -116.15689 | 35047 ft | 397 kts | 289° |
| 2026-04-26 03:55 | 32.92676 | -116.18567 | 34296 ft | 400 kts | 289° |
| 2026-04-26 03:55 | 32.94075 | -116.21385 | 33506 ft | 402 kts | 289° |
| 2026-04-26 03:56 | 32.95503 | -116.24250 | 32915 ft | 399 kts | 289° |
| 2026-04-26 03:56 | 32.96915 | -116.27066 | 32406 ft | 393 kts | 289° |
| 2026-04-26 03:56 | 32.98308 | -116.29847 | 31898 ft | 387 kts | 289° |
| 2026-04-26 03:56 | 32.99679 | -116.32587 | 31409 ft | 383 kts | 289° |
| 2026-04-26 03:57 | 33.01032 | -116.35302 | 30899 ft | 379 kts | 289° |
| 2026-04-26 03:57 | 33.02367 | -116.37994 | 30398 ft | 375 kts | 289° |
| 2026-04-26 03:57 | 33.03241 | -116.39757 | 30105 ft | 372 kts | 289° |
| 2026-04-26 03:57 | 33.04546 | -116.42410 | 29533 ft | 366 kts | 287° |
| 2026-04-26 03:58 | 33.05924 | -116.45959 | 28858 ft | 350 kts | 283° |
| 2026-04-26 03:58 | 33.06907 | -116.48584 | 28365 ft | 344 kts | 283° |
| 2026-04-26 03:58 | 33.07553 | -116.50307 | 28037 ft | 341 kts | 283° |
| 2026-04-26 03:58 | 33.08517 | -116.52877 | 27580 ft | 337 kts | 283° |
| 2026-04-26 03:59 | 33.09469 | -116.55408 | 27121 ft | 332 kts | 284° |
| 2026-04-26 03:59 | 33.10406 | -116.57905 | 26693 ft | 325 kts | 283° |
| 2026-04-26 03:59 | 33.11324 | -116.60350 | 26231 ft | 322 kts | 283° |
| 2026-04-26 03:59 | 33.12226 | -116.62770 | 25824 ft | 317 kts | 283° |
| 2026-04-26 04:00 | 33.13081 | -116.65177 | 25402 ft | 309 kts | 278° |
| 2026-04-26 04:00 | 33.13602 | -116.67602 | 25003 ft | 297 kts | 271° |
| 2026-04-26 04:00 | 33.13946 | -116.70027 | 24610 ft | 295 kts | 271° |
| 2026-04-26 04:00 | 33.14296 | -116.72446 | 24221 ft | 295 kts | 271° |
| 2026-04-26 04:01 | 33.14647 | -116.74845 | 23852 ft | 293 kts | 271° |
| 2026-04-26 04:01 | 33.14999 | -116.77239 | 23421 ft | 292 kts | 271° |
| 2026-04-26 04:01 | 33.15347 | -116.79588 | 23010 ft | 291 kts | 272° |
| 2026-04-26 04:01 | 33.15700 | -116.81968 | 22613 ft | 291 kts | 272° |
| 2026-04-26 04:02 | 33.16051 | -116.84346 | 22203 ft | 291 kts | 272° |
| 2026-04-26 04:02 | 33.16399 | -116.86719 | 21808 ft | 289 kts | 272° |
| 2026-04-26 04:02 | 33.16742 | -116.89086 | 21425 ft | 289 kts | 272° |
| 2026-04-26 04:02 | 33.17084 | -116.91458 | 21014 ft | 289 kts | 273° |
| 2026-04-26 04:03 | 33.17424 | -116.93825 | 20612 ft | 290 kts | 273° |
| 2026-04-26 04:03 | 33.17765 | -116.96208 | 20183 ft | 292 kts | 273° |
| 2026-04-26 04:03 | 33.18110 | -116.98599 | 19765 ft | 292 kts | 274° |
| 2026-04-26 04:03 | 33.18457 | -117.00992 | 19352 ft | 293 kts | 274° |
| 2026-04-26 04:04 | 33.19057 | -117.03332 | 19221 ft | 302 kts | 289° |
| 2026-04-26 04:04 | 33.20040 | -117.05570 | 19161 ft | 305 kts | 291° |
| 2026-04-26 04:04 | 33.21051 | -117.07801 | 19097 ft | 306 kts | 291° |
| 2026-04-26 04:04 | 33.22073 | -117.10035 | 19030 ft | 306 kts | 291° |
| 2026-04-26 04:05 | 33.23095 | -117.12265 | 18963 ft | 306 kts | 291° |
| 2026-04-26 04:05 | 33.24120 | -117.14501 | 18894 ft | 306 kts | 291° |
| 2026-04-26 04:05 | 33.25137 | -117.16738 | 18836 ft | 307 kts | 291° |
| 2026-04-26 04:05 | 33.26153 | -117.18970 | 18793 ft | 304 kts | 292° |
| 2026-04-26 04:06 | 33.27153 | -117.21158 | 18737 ft | 302 kts | 292° |
| 2026-04-26 04:06 | 33.28170 | -117.23391 | 18675 ft | 302 kts | 292° |
| 2026-04-26 04:06 | 33.29170 | -117.25597 | 18614 ft | 302 kts | 292° |
| 2026-04-26 04:06 | 33.30168 | -117.27805 | 18551 ft | 301 kts | 292° |
| 2026-04-26 04:07 | 33.31166 | -117.30012 | 18491 ft | 301 kts | 292° |
| 2026-04-26 04:07 | 33.32163 | -117.32214 | 18427 ft | 301 kts | 292° |
| 2026-04-26 04:07 | 33.33163 | -117.34427 | 18382 ft | 304 kts | 292° |
| 2026-04-26 04:07 | 33.34172 | -117.36659 | 18320 ft | 305 kts | 292° |
| 2026-04-26 04:08 | 33.35169 | -117.38867 | 18168 ft | 306 kts | 292° |
| 2026-04-26 04:08 | 33.36178 | -117.41106 | 17800 ft | 304 kts | 292° |
| 2026-04-26 04:08 | 33.37180 | -117.43329 | 17416 ft | 303 kts | 292° |
| 2026-04-26 04:08 | 33.38178 | -117.45538 | 17039 ft | 301 kts | 292° |
| 2026-04-26 04:09 | 33.39171 | -117.47740 | 16638 ft | 300 kts | 293° |
| 2026-04-26 04:09 | 33.40156 | -117.49930 | 16261 ft | 298 kts | 293° |
| 2026-04-26 04:09 | 33.41138 | -117.52118 | 15887 ft | 297 kts | 293° |
| 2026-04-26 04:09 | 33.42116 | -117.54295 | 15508 ft | 296 kts | 293° |
| 2026-04-26 04:10 | 33.43089 | -117.56460 | 15135 ft | 295 kts | 293° |
| 2026-04-26 04:10 | 33.44065 | -117.58629 | 14758 ft | 295 kts | 293° |
| 2026-04-26 04:10 | 33.45035 | -117.60788 | 14383 ft | 294 kts | 293° |
| 2026-04-26 04:10 | 33.46003 | -117.62952 | 13999 ft | 295 kts | 293° |
| 2026-04-26 04:11 | 33.46959 | -117.65094 | 13601 ft | 295 kts | 293° |
| 2026-04-26 04:11 | 33.47927 | -117.67255 | 13217 ft | 294 kts | 293° |
| 2026-04-26 04:11 | 33.48892 | -117.69413 | 12817 ft | 293 kts | 293° |
| 2026-04-26 04:11 | 33.49854 | -117.71568 | 12420 ft | 292 kts | 294° |
| 2026-04-26 04:12 | 33.50811 | -117.73707 | 12045 ft | 290 kts | 294° |
| 2026-04-26 04:12 | 33.51766 | -117.75844 | 11658 ft | 290 kts | 294° |
| 2026-04-26 04:12 | 33.52716 | -117.77970 | 11277 ft | 289 kts | 294° |
| 2026-04-26 04:12 | 33.53663 | -117.80092 | 10873 ft | 288 kts | 294° |
| 2026-04-26 04:13 | 33.54606 | -117.82206 | 10476 ft | 287 kts | 295° |
| 2026-04-26 04:13 | 33.55541 | -117.84301 | 10227 ft | 281 kts | 295° |
| 2026-04-26 04:13 | 33.56452 | -117.86338 | 10011 ft | 274 kts | 295° |
| 2026-04-26 04:13 | 33.57345 | -117.88335 | 9891 ft | 270 kts | 295° |
| 2026-04-26 04:14 | 33.58228 | -117.90321 | 9686 ft | 270 kts | 295° |
| 2026-04-26 04:14 | 33.59110 | -117.92307 | 9336 ft | 269 kts | 295° |
| 2026-04-26 04:14 | 33.59983 | -117.94278 | 8967 ft | 268 kts | 295° |
| 2026-04-26 04:14 | 33.60858 | -117.96252 | 8602 ft | 267 kts | 295° |
| 2026-04-26 04:15 | 33.61835 | -117.98149 | 8236 ft | 268 kts | 306° |
| 2026-04-26 04:15 | 33.63194 | -117.99633 | 7900 ft | 272 kts | 323° |
| 2026-04-26 04:15 | 33.64961 | -118.00610 | 7689 ft | 278 kts | 339° |
| 2026-04-26 04:15 | 33.66789 | -118.01268 | 7463 ft | 278 kts | 339° |
| 2026-04-26 04:16 | 33.68640 | -118.01940 | 7230 ft | 278 kts | 340° |
| 2026-04-26 04:16 | 33.70487 | -118.02614 | 7054 ft | 276 kts | 340° |
| 2026-04-26 04:16 | 33.72325 | -118.03285 | 7005 ft | 276 kts | 340° |
| 2026-04-26 04:16 | 33.74168 | -118.03959 | 7006 ft | 277 kts | 339° |
| 2026-04-26 04:17 | 33.76012 | -118.04635 | 6972 ft | 277 kts | 340° |
| 2026-04-26 04:17 | 33.77859 | -118.05311 | 6971 ft | 277 kts | 340° |
| 2026-04-26 04:17 | 33.79689 | -118.06048 | 6751 ft | 278 kts | 336° |
| 2026-04-26 04:17 | 33.81476 | -118.06879 | 6407 ft | 273 kts | 335° |
| 2026-04-26 04:18 | 33.83221 | -118.07736 | 6064 ft | 268 kts | 334° |
| 2026-04-26 04:18 | 33.84938 | -118.08592 | 5753 ft | 266 kts | 334° |
| 2026-04-26 04:18 | 33.86642 | -118.09436 | 5435 ft | 264 kts | 334° |
| 2026-04-26 04:18 | 33.88319 | -118.10255 | 5118 ft | 260 kts | 335° |
| 2026-04-26 04:19 | 33.90024 | -118.10735 | 4991 ft | 243 kts | 353° |
| 2026-04-26 04:19 | 33.91659 | -118.10838 | 4713 ft | 230 kts | 350° |
| 2026-04-26 04:19 | 33.93135 | -118.11326 | 4449 ft | 214 kts | 329° |
| 2026-04-26 04:19 | 33.94347 | -118.12317 | 4200 ft | 209 kts | 318° |
| 2026-04-26 04:20 | 33.95404 | -118.13495 | 3962 ft | 204 kts | 302° |
| 2026-04-26 04:20 | 33.95924 | -118.15043 | 3736 ft | 197 kts | 276° |
| 2026-04-26 04:20 | 33.95935 | -118.16639 | 3583 ft | 184 kts | 264° |
| 2026-04-26 04:20 | 33.95777 | -118.18167 | 3433 ft | 184 kts | 263° |
| 2026-04-26 04:21 | 33.95616 | -118.19696 | 3206 ft | 185 kts | 263° |
| 2026-04-26 04:21 | 33.95459 | -118.21237 | 2961 ft | 185 kts | 263° |
| 2026-04-26 04:21 | 33.95305 | -118.22766 | 2741 ft | 182 kts | 263° |
| 2026-04-26 04:21 | 33.95155 | -118.24253 | 2473 ft | 175 kts | 263° |
| 2026-04-26 04:22 | 33.95014 | -118.25657 | 2254 ft | 162 kts | 263° |
| 2026-04-26 04:22 | 33.94882 | -118.26958 | 2030 ft | 151 kts | 263° |
| 2026-04-26 04:22 | 33.94759 | -118.28180 | 1830 ft | 145 kts | 263° |
| 2026-04-26 04:22 | 33.94641 | -118.29350 | 1641 ft | 140 kts | 263° |
| 2026-04-26 04:23 | 33.94522 | -118.30523 | 1450 ft | 141 kts | 263° |
| 2026-04-26 04:23 | 33.94404 | -118.31687 | 1264 ft | 138 kts | 263° |
| 2026-04-26 04:23 | 33.94287 | -118.32845 | 1048 ft | 139 kts | 263° |
| 2026-04-26 04:23 | 33.94172 | -118.34004 | 828 ft | 140 kts | 263° |
| 2026-04-26 04:24 | 33.94054 | -118.35172 | 660 ft | 139 kts | 262° |
| 2026-04-26 04:24 | 33.93935 | -118.36348 | 473 ft | 140 kts | 262° |
| 2026-04-26 04:24 | 33.93811 | -118.37493 | 295 ft | 135 kts | 263° |
| 2026-04-26 04:24 | 33.93701 | -118.38609 | 128 ft | 132 kts | 263° |
| 2026-04-26 04:25 | 33.93602 | -118.39609 | 110 ft | 104 kts | 263° |
| 2026-04-26 04:25 | 33.93532 | -118.40272 | 111 ft | 52 kts | 263° |
| 2026-04-26 04:25 | 33.93494 | -118.40652 | 112 ft | 42 kts | 263° |
| 2026-04-26 04:25 | 33.93484 | -118.40973 | 113 ft | 34 kts | 277° |
| 2026-04-26 04:26 | 33.93537 | -118.41179 | 107 ft | 20 kts | 285° |
| 2026-04-26 04:26 | 33.93634 | -118.41267 | 109 ft | 17 kts | 350° |
| 2026-04-26 04:26 | 33.93725 | -118.41274 | 105 ft | 10 kts | 10° |
| 2026-04-26 04:26 | 33.93751 | -118.41261 | 102 ft | 1 kts | 29° |
| 2026-04-26 04:27 | 33.93760 | -118.41252 | 102 ft | 3 kts | 47° |
| 2026-04-26 04:27 | 33.93760 | -118.41227 | 102 ft | 7 kts | 90° |
| 2026-04-26 04:27 | 33.93802 | -118.41154 | 99 ft | 14 kts | 4° |
| 2026-04-26 04:27 | 33.93908 | -118.41167 | 97 ft | 17 kts | 353° |
| 2026-04-26 04:28 | 33.94032 | -118.41186 | 96 ft | 19 kts | 353° |
| 2026-04-26 04:28 | 33.94169 | -118.41206 | 97 ft | 21 kts | 353° |
| 2026-04-26 04:28 | 33.94317 | -118.41228 | 96 ft | 22 kts | 353° |
| 2026-04-26 04:28 | 33.94476 | -118.41252 | 95 ft | 24 kts | 353° |
| 2026-04-26 04:29 | 33.94604 | -118.41271 | 96 ft | 16 kts | 353° |
| 2026-04-26 04:29 | 33.94686 | -118.41261 | 96 ft | 11 kts | 42° |
| 2026-04-26 04:29 | 33.94714 | -118.41185 | 96 ft | 9 kts | 71° |
| 2026-04-26 04:29 | 33.94728 | -118.41118 | 97 ft | 7 kts | 79° |
| 2026-04-26 04:30 | 33.94733 | -118.41065 | 98 ft | 6 kts | 84° |
| 2026-04-26 04:30 | 33.94740 | -118.41002 | 97 ft | 8 kts | 82° |
| 2026-04-26 04:30 | 33.94729 | -118.40958 | 98 ft | 5 kts | 165° |
| 2026-04-26 04:30 | 33.94699 | -118.40974 | 98 ft | 4 kts | 217° |
| 2026-04-26 04:31 | 33.94692 | -118.40981 | 97 ft | 0 kts | 220° |
| 2026-04-26 04:31 | 33.94682 | -118.40991 | 96 ft | 2 kts | 220° |